createdAt,value
2023-03-02T00:00:15.300Z,78.33
2023-03-02T00:02:43.359Z,78.77
2023-03-02T00:05:14.381Z,74.03
2023-03-02T00:07:43.569Z,69.07
2023-03-02T00:10:12.178Z,72.37
2023-03-02T00:12:39.863Z,76.37
2023-03-02T00:15:08.681Z,73.50
2023-03-02T00:17:37.159Z,72.80
2023-03-02T00:20:11.991Z,74.40
2023-03-02T00:22:40.526Z,73.00
2023-03-02T00:25:10.989Z,73.73
2023-03-02T00:27:38.796Z,74.87
2023-03-02T00:30:08.720Z,71.27
2023-03-02T00:32:36.527Z,77.30
2023-03-02T00:35:05.065Z,73.83
2023-03-02T00:37:32.866Z,74.23
2023-03-02T00:40:00.511Z,75.73
2023-03-02T00:42:29.513Z,76.07
2023-03-02T00:44:59.158Z,74.43
2023-03-02T00:47:26.737Z,68.73
2023-03-02T00:49:54.330Z,73.27
2023-03-02T00:52:22.552Z,68.07
2023-03-02T00:54:50.226Z,75.37
2023-03-02T00:57:18.167Z,74.70
2023-03-02T00:59:47.392Z,75.23
2023-03-02T01:02:44.723Z,62.70
2023-03-02T01:05:17.062Z,76.53
2023-03-02T01:07:44.889Z,80.53
2023-03-02T01:10:13.491Z,74.30
2023-03-02T01:12:42.810Z,75.23
2023-03-02T01:15:12.798Z,77.17
2023-03-02T01:17:42.841Z,78.80
2023-03-02T01:20:11.966Z,71.87
2023-03-02T01:22:39.757Z,67.73
2023-03-02T01:25:08.464Z,70.33
2023-03-02T01:27:36.540Z,69.60
2023-03-02T01:30:05.224Z,70.20
2023-03-02T01:32:34.270Z,70.67
2023-03-02T01:35:02.008Z,69.03
2023-03-02T01:37:29.704Z,67.83
2023-03-02T01:39:57.444Z,74.77
2023-03-02T01:42:25.092Z,66.13
2023-03-02T01:44:57.043Z,69.00
2023-03-02T01:47:27.959Z,66.43
2023-03-02T01:50:06.926Z,70.80
2023-03-02T01:52:39.501Z,60.63
2023-03-02T01:55:11.932Z,69.60
2023-03-02T01:57:44.493Z,68.63
2023-03-02T02:00:15.248Z,78.10
2023-03-02T02:02:43.359Z,77.60
2023-03-02T02:05:16.855Z,76.13
2023-03-02T02:07:45.350Z,71.83
2023-03-02T02:10:14.560Z,73.67
2023-03-02T02:12:42.521Z,70.67
2023-03-02T02:15:11.212Z,80.47
2023-03-02T02:17:39.342Z,72.50
2023-03-02T02:20:21.681Z,72.30
2023-03-02T02:22:58.347Z,73.90
2023-03-02T02:25:44.691Z,72.60
2023-03-02T02:28:19.021Z,71.73
2023-03-02T02:30:48.574Z,79.10
2023-03-02T02:33:20.748Z,73.33
2023-03-02T02:35:50.174Z,81.40
2023-03-02T02:38:20.666Z,76.73
2023-03-02T02:40:52.579Z,78.73
2023-03-02T02:43:29.590Z,78.80
2023-03-02T02:45:59.349Z,69.43
2023-03-02T02:48:31.084Z,78.13
2023-03-02T02:51:01.265Z,77.47
2023-03-02T02:53:32.878Z,76.53
2023-03-02T02:56:01.731Z,81.63
2023-03-02T02:58:36.520Z,76.40
2023-03-02T03:01:04.707Z,75.73
2023-03-02T03:03:35.211Z,81.90
2023-03-02T03:06:10.600Z,79.13
2023-03-02T03:08:54.148Z,81.23
2023-03-02T03:11:29.434Z,76.63
2023-03-02T03:14:04.515Z,85.17
2023-03-02T03:16:34.370Z,78.37
2023-03-02T03:19:07.837Z,75.10
2023-03-02T03:21:36.255Z,79.00
2023-03-02T03:24:04.516Z,82.03
2023-03-02T03:26:32.728Z,81.93
2023-03-02T03:29:02.240Z,83.17
2023-03-02T03:31:30.162Z,84.47
2023-03-02T03:34:00.531Z,85.07
2023-03-02T03:36:32.635Z,88.13
2023-03-02T03:39:01.362Z,87.07
2023-03-02T03:41:30.779Z,82.33
2023-03-02T03:43:59.025Z,86.77
2023-03-02T03:46:31.108Z,84.30
2023-03-02T03:48:59.167Z,74.77
2023-03-02T03:51:27.333Z,77.57
2023-03-02T03:54:00.688Z,81.73
2023-03-02T03:56:37.265Z,80.57
2023-03-02T03:59:09.970Z,83.27
2023-03-02T04:01:46.911Z,82.93
2023-03-02T04:04:18.553Z,76.60
2023-03-02T04:06:46.757Z,76.27
2023-03-02T04:09:15.508Z,80.27
2023-03-02T04:11:45.291Z,83.87
2023-03-02T04:14:15.251Z,81.20
2023-03-02T04:16:45.297Z,80.03
2023-03-02T04:19:14.793Z,79.57
2023-03-02T04:21:45.853Z,82.40
2023-03-02T04:24:18.226Z,86.47
2023-03-02T04:26:47.550Z,82.03
2023-03-02T04:29:15.846Z,86.17
2023-03-02T04:31:45.155Z,86.07
2023-03-02T04:34:14.034Z,83.50
2023-03-02T04:36:44.816Z,82.40
2023-03-02T04:39:16.590Z,81.37
2023-03-02T04:41:48.718Z,81.40
2023-03-02T04:44:17.644Z,80.83
2023-03-02T04:46:47.721Z,75.77
2023-03-02T04:49:17.529Z,80.10
2023-03-02T04:51:48.197Z,92.67
2023-03-02T04:54:19.143Z,88.77
2023-03-02T04:56:48.413Z,95.90
2023-03-02T04:59:16.116Z,86.83
2023-03-02T05:01:44.865Z,97.83
2023-03-02T05:04:14.425Z,91.23
2023-03-02T05:06:42.163Z,93.90
2023-03-02T05:09:09.935Z,89.80
2023-03-02T05:11:37.767Z,89.60
2023-03-02T05:14:07.684Z,81.40
2023-03-02T05:16:37.681Z,88.73
2023-03-02T05:19:07.658Z,83.93
2023-03-02T05:21:36.823Z,81.80
2023-03-02T05:24:05.015Z,82.00
2023-03-02T05:26:33.287Z,84.17
2023-03-02T05:29:01.234Z,81.77
2023-03-02T05:31:31.779Z,77.30
2023-03-02T05:33:59.459Z,82.13
2023-03-02T05:36:27.248Z,88.77
2023-03-02T05:38:56.244Z,87.13
2023-03-02T05:41:23.924Z,88.23
2023-03-02T05:43:51.893Z,86.37
2023-03-02T05:46:21.893Z,89.63
2023-03-02T05:48:50.112Z,89.67
2023-03-02T05:51:17.798Z,94.23
2023-03-02T05:53:45.521Z,97.03
2023-03-02T05:56:14.578Z,91.73
2023-03-02T05:58:42.249Z,93.43
2023-03-02T06:01:15.148Z,96.77
2023-03-02T06:03:43.274Z,98.03
2023-03-02T06:06:13.821Z,92.67
2023-03-02T06:08:41.987Z,99.83
2023-03-02T06:11:10.144Z,93.17
2023-03-02T06:13:39.664Z,99.43
2023-03-02T06:16:08.068Z,100.20
2023-03-02T06:18:36.462Z,92.93
2023-03-02T06:21:05.283Z,95.97
2023-03-02T06:23:33.375Z,98.47
2023-03-02T06:26:01.284Z,95.60
2023-03-02T06:28:29.015Z,101.03
2023-03-02T06:31:00.314Z,92.47
2023-03-02T06:33:27.967Z,94.23
2023-03-02T06:35:55.823Z,97.07
2023-03-02T06:38:24.261Z,107.33
2023-03-02T06:40:52.214Z,98.40
2023-03-02T06:43:19.874Z,96.47
2023-03-02T06:45:47.619Z,105.27
2023-03-02T06:48:16.686Z,97.70
2023-03-02T06:50:44.386Z,91.07
2023-03-02T06:53:12.070Z,98.37
2023-03-02T06:55:39.895Z,100.83
2023-03-02T06:58:07.836Z,100.67
2023-03-02T07:00:35.424Z,96.10
2023-03-02T07:03:03.495Z,99.03
2023-03-02T07:05:33.037Z,98.20
2023-03-02T07:08:01.976Z,89.90
2023-03-02T07:10:30.018Z,100.50
2023-03-02T07:12:57.735Z,99.47
2023-03-02T07:15:25.613Z,99.87
2023-03-02T07:17:53.913Z,91.90
2023-03-02T07:20:21.762Z,94.57
2023-03-02T07:22:50.834Z,94.23
2023-03-02T07:25:18.703Z,95.60
2023-03-02T07:27:46.350Z,100.43
2023-03-02T07:30:15.646Z,98.37
2023-03-02T07:32:43.447Z,88.33
2023-03-02T07:35:11.227Z,93.50
2023-03-02T07:37:38.878Z,96.97
2023-03-02T07:40:09.857Z,99.53
2023-03-02T07:42:37.524Z,100.07
2023-03-02T07:45:07.603Z,107.03
2023-03-02T07:47:35.258Z,100.03
2023-03-02T07:50:03.122Z,96.43
2023-03-02T07:52:31.532Z,97.73
2023-03-02T07:54:59.166Z,107.87
2023-03-02T07:57:28.764Z,103.67
2023-03-02T07:59:56.400Z,103.37
2023-03-02T08:02:25.399Z,112.70
2023-03-02T08:04:53.250Z,109.83
2023-03-02T08:07:20.936Z,107.80
2023-03-02T08:09:48.720Z,110.07
2023-03-02T08:12:16.447Z,118.97
2023-03-02T08:14:45.508Z,123.83
2023-03-02T08:17:13.121Z,118.00
2023-03-02T08:19:40.784Z,120.33
2023-03-02T08:22:08.505Z,126.37
2023-03-02T08:24:36.149Z,128.67
2023-03-02T08:27:04.812Z,119.17
2023-03-02T08:29:32.567Z,121.60
2023-03-02T08:32:02.046Z,127.90
2023-03-02T08:34:29.803Z,129.93
2023-03-02T08:36:57.449Z,126.07
2023-03-02T08:39:25.322Z,119.10
2023-03-02T08:41:53.882Z,133.47
2023-03-02T08:44:22.131Z,117.93
2023-03-02T08:46:50.004Z,118.20
2023-03-02T08:49:20.669Z,114.93
2023-03-02T08:51:53.230Z,106.00
2023-03-02T08:54:21.759Z,107.30
2023-03-02T08:56:50.149Z,105.93
2023-03-02T08:59:18.229Z,101.50
2023-03-02T09:01:46.212Z,95.50
2023-03-02T09:04:14.230Z,96.33
2023-03-02T09:06:45.313Z,92.23
2023-03-02T09:09:14.667Z,102.07
2023-03-02T09:11:43.542Z,105.73
2023-03-02T09:14:11.672Z,100.77
2023-03-02T09:16:39.762Z,98.07
2023-03-02T09:19:07.990Z,108.70
2023-03-02T09:21:35.819Z,98.60
2023-03-02T09:24:05.442Z,100.33
2023-03-02T09:26:33.982Z,101.60
2023-03-02T09:29:01.729Z,102.80
2023-03-02T09:31:30.485Z,91.83
2023-03-02T09:33:58.448Z,97.53
2023-03-02T09:36:27.720Z,96.80
2023-03-02T09:38:55.909Z,94.07
2023-03-02T09:41:42.515Z,92.73
2023-03-02T09:44:30.594Z,86.50
2023-03-02T09:47:04.476Z,84.93
2023-03-02T09:49:47.343Z,80.90
2023-03-02T09:52:31.027Z,80.73
2023-03-02T09:55:02.451Z,88.47
2023-03-02T09:57:34.545Z,84.37
2023-03-02T10:00:18.055Z,79.13
2023-03-02T10:02:49.745Z,80.23
2023-03-02T10:05:21.197Z,80.07
2023-03-02T10:07:49.072Z,79.53
2023-03-02T10:10:26.556Z,85.67
2023-03-02T10:13:10.173Z,81.80
2023-03-02T10:15:42.158Z,75.90
2023-03-02T10:18:20.984Z,76.20
2023-03-02T10:20:55.798Z,68.53
2023-03-02T10:23:45.400Z,70.30
2023-03-02T10:26:30.321Z,73.40
2023-03-02T10:29:05.605Z,78.67
2023-03-02T10:31:34.654Z,69.73
2023-03-02T10:34:02.331Z,68.63
2023-03-02T10:36:31.819Z,64.33
2023-03-02T10:39:01.329Z,64.93
2023-03-02T10:41:33.091Z,69.80
2023-03-02T10:44:05.578Z,68.47
2023-03-02T10:46:41.136Z,62.07
2023-03-02T10:49:26.082Z,56.50
2023-03-02T10:52:01.958Z,61.23
2023-03-02T10:54:30.525Z,56.27
2023-03-02T10:57:00.991Z,63.07
2023-03-02T10:59:43.838Z,55.37
2023-03-02T11:02:23.087Z,58.63
2023-03-02T11:04:57.445Z,53.43
2023-03-02T11:07:27.147Z,60.17
2023-03-02T11:10:03.467Z,54.20
2023-03-02T11:12:32.568Z,55.53
2023-03-02T11:15:17.501Z,50.72
2023-03-02T11:17:47.207Z,52.55
2023-03-02T11:20:18.777Z,59.63
2023-03-02T11:22:54.573Z,59.17
2023-03-02T11:25:29.340Z,49.45
2023-03-02T11:28:03.399Z,56.90
2023-03-02T11:30:37.256Z,50.65
2023-03-02T11:33:13.062Z,54.67
2023-03-02T11:35:48.730Z,50.92
2023-03-02T11:38:22.355Z,52.38
2023-03-02T11:40:54.604Z,60.63
2023-03-02T11:43:22.386Z,57.60
2023-03-02T11:45:58.581Z,63.17
2023-03-02T11:48:30.657Z,56.85
2023-03-02T11:51:00.866Z,59.40
2023-03-02T11:53:34.629Z,57.38
2023-03-02T11:56:02.868Z,58.30
2023-03-02T11:58:31.041Z,57.55
2023-03-02T12:01:02.085Z,61.95
2023-03-02T12:03:44.845Z,57.15
2023-03-02T12:06:35.435Z,62.00
2023-03-02T12:09:30.756Z,64.68
2023-03-02T12:12:01.419Z,66.68
2023-03-02T12:14:38.179Z,65.38
2023-03-02T12:17:20.775Z,63.03
2023-03-02T12:19:50.741Z,71.10
2023-03-02T12:22:28.835Z,67.82
2023-03-02T12:25:07.403Z,63.55
2023-03-02T12:27:38.031Z,63.20
2023-03-02T12:30:28.230Z,70.13
2023-03-02T12:33:17.705Z,67.00
2023-03-02T12:35:46.492Z,59.75
2023-03-02T12:38:30.787Z,66.65
2023-03-02T12:41:17.393Z,66.47
2023-03-02T12:43:56.718Z,67.25
2023-03-02T12:46:30.477Z,70.05
2023-03-02T12:49:13.211Z,81.43
2023-03-02T12:51:55.636Z,66.53
2023-03-02T12:54:25.031Z,73.72
2023-03-02T12:57:06.223Z,74.05
2023-03-02T12:59:34.141Z,70.25
2023-03-02T13:02:06.870Z,63.75
2023-03-02T13:04:35.828Z,80.32
2023-03-02T13:07:03.585Z,79.53
2023-03-02T13:09:32.199Z,73.93
2023-03-02T13:11:59.940Z,68.97
2023-03-02T13:14:29.420Z,72.38
2023-03-02T13:16:59.135Z,68.47
2023-03-02T13:19:30.518Z,67.38
2023-03-02T13:22:00.749Z,73.13
2023-03-02T13:24:34.070Z,70.47
2023-03-02T13:27:06.707Z,70.70
2023-03-02T13:29:35.391Z,72.38
2023-03-02T13:32:17.731Z,77.22
2023-03-02T13:34:50.900Z,68.78
2023-03-02T13:37:34.920Z,72.40
2023-03-02T13:40:05.068Z,68.50
2023-03-02T13:42:37.151Z,69.22
2023-03-02T13:45:27.216Z,66.05
2023-03-02T13:47:56.688Z,65.72
2023-03-02T13:50:26.538Z,70.65
2023-03-02T13:52:57.368Z,68.95
2023-03-02T13:55:25.771Z,62.50
2023-03-02T13:57:55.385Z,67.65
2023-03-02T14:00:27.712Z,59.03
2023-03-02T14:02:55.523Z,61.70
2023-03-02T14:05:26.689Z,67.85
2023-03-02T14:07:55.809Z,62.45
2023-03-02T14:10:23.563Z,56.75
2023-03-02T14:12:57.031Z,58.22
2023-03-02T14:15:25.755Z,58.85
2023-03-02T14:17:53.626Z,67.30
2023-03-02T14:20:21.738Z,59.10
2023-03-02T14:22:50.499Z,62.08
2023-03-02T14:25:20.456Z,66.53
2023-03-02T14:27:48.129Z,70.13
2023-03-02T14:30:18.775Z,58.80
2023-03-02T14:32:47.143Z,63.83
2023-03-02T14:35:16.784Z,57.65
2023-03-02T14:37:46.516Z,54.33
2023-03-02T14:40:22.760Z,54.50
2023-03-02T14:42:51.728Z,52.22
2023-03-02T14:45:19.562Z,59.20
2023-03-02T14:47:47.310Z,62.30
2023-03-02T14:50:16.382Z,58.13
2023-03-02T14:52:49.018Z,55.03
2023-03-02T14:55:28.602Z,55.05
2023-03-02T14:57:58.985Z,55.22
2023-03-02T15:00:27.427Z,54.25
2023-03-02T15:02:55.382Z,55.05
2023-03-02T15:05:23.262Z,57.25
2023-03-02T15:07:53.572Z,50.17
2023-03-02T15:10:23.205Z,55.63
2023-03-02T15:12:52.570Z,55.65
2023-03-02T15:15:20.328Z,55.10
2023-03-02T15:17:48.167Z,55.85
2023-03-02T15:20:16.998Z,51.40
2023-03-02T15:22:44.969Z,51.83
2023-03-02T15:25:12.618Z,57.45
2023-03-02T15:27:41.443Z,51.40
2023-03-02T15:30:12.327Z,51.20
2023-03-02T15:32:40.605Z,54.05
2023-03-02T15:35:09.282Z,52.25
2023-03-02T15:37:36.996Z,61.03
2023-03-02T15:40:05.237Z,63.47
2023-03-02T15:42:33.180Z,58.35
2023-03-02T15:45:00.904Z,57.85
2023-03-02T15:47:29.935Z,51.90
2023-03-02T15:49:57.614Z,55.05
2023-03-02T15:52:25.418Z,59.58
2023-03-02T15:54:53.146Z,54.63
2023-03-02T15:57:20.791Z,56.92
2023-03-02T15:59:48.468Z,56.92
2023-03-02T16:02:16.197Z,63.85
2023-03-02T16:04:45.253Z,57.70
2023-03-02T16:07:12.997Z,58.03
2023-03-02T16:09:40.855Z,48.70
2023-03-02T16:12:08.560Z,56.25
2023-03-02T16:14:36.191Z,51.42
2023-03-02T16:17:03.861Z,56.90
2023-03-02T16:19:32.220Z,55.63
2023-03-02T16:22:01.168Z,54.33
2023-03-02T16:24:29.440Z,57.45
2023-03-02T16:26:57.102Z,59.20
2023-03-02T16:29:25.114Z,55.97
2023-03-02T16:31:53.067Z,57.92
2023-03-02T16:34:20.937Z,51.92
2023-03-02T16:36:48.624Z,58.88
2023-03-02T16:39:17.629Z,64.13
2023-03-02T16:41:46.091Z,67.55
2023-03-02T16:44:14.502Z,78.85
2023-03-02T16:46:43.656Z,74.57
2023-03-02T16:49:11.816Z,77.20
2023-03-02T16:51:40.404Z,83.28
2023-03-02T16:54:08.111Z,88.32
2023-03-02T16:56:37.133Z,77.43
2023-03-02T16:59:04.810Z,85.38
2023-03-02T17:01:32.535Z,86.15
2023-03-02T17:04:00.520Z,79.68
2023-03-02T17:06:28.336Z,74.33
2023-03-02T17:08:56.051Z,70.90
2023-03-02T17:11:23.973Z,71.50
2023-03-02T17:13:53.052Z,66.97
2023-03-02T17:16:20.751Z,63.27
2023-03-02T17:18:48.513Z,69.73
2023-03-02T17:21:17.946Z,77.07
2023-03-02T17:23:47.897Z,74.63
2023-03-02T17:26:16.016Z,75.57
2023-03-02T17:28:43.705Z,84.80
2023-03-02T17:31:13.047Z,84.00
2023-03-02T17:33:40.960Z,83.50
2023-03-02T17:36:12.005Z,78.47
2023-03-02T17:38:40.370Z,86.93
2023-03-02T17:41:09.495Z,87.57
2023-03-02T17:43:42.148Z,86.77
2023-03-02T17:46:14.524Z,77.77
2023-03-02T17:48:43.249Z,87.67
2023-03-02T17:51:11.697Z,86.07
2023-03-02T17:53:39.653Z,93.10
2023-03-02T17:56:07.642Z,94.83
2023-03-02T17:58:44.745Z,93.43
2023-03-02T18:01:15.639Z,92.83
2023-03-02T18:03:44.904Z,88.17
2023-03-02T18:06:13.154Z,89.03
2023-03-02T18:08:41.009Z,92.00
2023-03-02T18:11:08.704Z,94.33
2023-03-02T18:13:36.620Z,96.77
2023-03-02T18:16:04.553Z,107.33
2023-03-02T18:18:33.830Z,103.03
2023-03-02T18:21:01.941Z,97.33
2023-03-02T18:23:30.587Z,99.17
2023-03-02T18:25:58.345Z,105.10
2023-03-02T18:28:26.730Z,106.63
2023-03-02T18:30:54.446Z,111.20
2023-03-02T18:33:22.282Z,104.67
2023-03-02T18:35:51.289Z,111.80
2023-03-02T18:38:19.031Z,107.07
2023-03-02T18:40:46.843Z,108.57
2023-03-02T18:43:14.511Z,106.03
2023-03-02T18:45:42.259Z,107.67
2023-03-02T18:48:10.000Z,101.70
2023-03-02T18:50:39.529Z,108.60
2023-03-02T18:53:09.614Z,107.10
2023-03-02T18:55:38.050Z,102.90
2023-03-02T18:58:07.008Z,101.07
2023-03-02T19:00:35.023Z,111.90
2023-03-02T19:03:02.759Z,113.83
2023-03-02T19:05:30.604Z,109.47
2023-03-02T19:07:58.953Z,115.70
2023-03-02T19:10:27.947Z,105.20
2023-03-02T19:12:55.955Z,104.43
2023-03-02T19:15:24.855Z,106.17
2023-03-02T19:17:53.010Z,113.17
2023-03-02T19:20:22.027Z,116.97
2023-03-02T19:22:49.972Z,111.73
2023-03-02T19:25:17.739Z,115.30
2023-03-02T19:27:46.740Z,112.20
2023-03-02T19:30:19.063Z,116.93
2023-03-02T19:32:46.793Z,113.67
2023-03-02T19:35:17.843Z,107.83
2023-03-02T19:37:46.221Z,110.47
2023-03-02T19:40:17.236Z,106.87
2023-03-02T19:42:47.755Z,106.57
2023-03-02T19:45:19.446Z,108.50
2023-03-02T19:47:47.338Z,106.70
2023-03-02T19:50:17.007Z,98.27
2023-03-02T19:52:44.798Z,95.23
2023-03-02T19:55:15.216Z,96.53
2023-03-02T19:57:43.241Z,101.70
2023-03-02T20:00:16.647Z,96.93
2023-03-02T20:02:45.098Z,103.17
2023-03-02T20:05:12.834Z,98.63
2023-03-02T20:07:41.857Z,97.07
2023-03-02T20:10:11.375Z,88.80
2023-03-02T20:12:39.056Z,101.77
2023-03-02T20:15:07.979Z,102.00
2023-03-02T20:17:37.032Z,103.90
2023-03-02T20:20:05.652Z,101.27
2023-03-02T20:22:33.283Z,99.70
2023-03-02T20:25:00.890Z,97.23
2023-03-02T20:27:28.680Z,92.30
2023-03-02T20:29:56.452Z,101.47
2023-03-02T20:32:24.626Z,95.73
2023-03-02T20:34:53.715Z,99.47
2023-03-02T20:37:26.026Z,91.13
2023-03-02T20:39:54.678Z,103.27
2023-03-02T20:42:22.385Z,98.37
2023-03-02T20:44:50.227Z,95.90
2023-03-02T20:47:18.003Z,95.73
2023-03-02T20:49:45.832Z,94.27
2023-03-02T20:52:14.933Z,94.73
2023-03-02T20:54:43.831Z,97.63
2023-03-02T20:57:15.990Z,95.13
2023-03-02T20:59:45.754Z,97.20
2023-03-02T21:02:14.330Z,99.97
2023-03-02T21:04:43.340Z,96.70
2023-03-02T21:07:11.689Z,90.77
2023-03-02T21:09:41.782Z,95.57
2023-03-02T21:12:11.749Z,99.53
2023-03-02T21:14:40.584Z,92.70
2023-03-02T21:17:09.242Z,98.47
2023-03-02T21:19:37.997Z,102.20
2023-03-02T21:22:05.982Z,98.03
2023-03-02T21:24:33.721Z,103.53
2023-03-02T21:27:02.842Z,107.00
2023-03-02T21:29:30.584Z,100.67
2023-03-02T21:31:58.565Z,105.00
2023-03-02T21:34:26.307Z,108.17
2023-03-02T21:36:54.048Z,112.37
2023-03-02T21:39:23.748Z,105.73
2023-03-02T21:41:52.404Z,109.10
2023-03-02T21:44:21.542Z,100.93
2023-03-02T21:46:49.735Z,107.97
2023-03-02T21:49:19.841Z,105.83
2023-03-02T21:51:49.883Z,106.13
2023-03-02T21:54:17.792Z,112.13
2023-03-02T21:56:45.782Z,104.93
2023-03-02T21:59:13.581Z,106.10
2023-03-02T22:01:42.778Z,100.93
2023-03-02T22:04:10.571Z,100.53
2023-03-02T22:06:38.503Z,100.33
2023-03-02T22:09:06.231Z,107.30
2023-03-02T22:11:36.138Z,100.70
2023-03-02T22:14:11.948Z,96.40
2023-03-02T22:16:43.101Z,98.97
2023-03-02T22:19:24.306Z,100.70
2023-03-02T22:21:53.217Z,101.10
2023-03-02T22:24:24.416Z,104.63
2023-03-02T22:26:59.084Z,103.60
2023-03-02T22:29:29.519Z,101.57
2023-03-02T22:32:07.194Z,99.93
2023-03-02T22:34:44.206Z,93.00
2023-03-02T22:37:14.347Z,96.87
2023-03-02T22:39:42.544Z,96.77
2023-03-02T22:42:14.997Z,93.97
2023-03-02T22:44:42.834Z,101.43
2023-03-02T22:47:16.488Z,107.10
2023-03-02T22:49:44.436Z,102.23
2023-03-02T22:52:18.273Z,103.83
2023-03-02T22:54:46.579Z,108.10
2023-03-02T22:57:24.067Z,102.20
2023-03-02T22:59:51.780Z,104.97
2023-03-02T23:02:22.356Z,104.73
2023-03-02T23:04:50.342Z,101.83
2023-03-02T23:07:20.021Z,105.30
2023-03-02T23:09:48.925Z,107.83
2023-03-02T23:12:20.797Z,101.93
2023-03-02T23:14:50.914Z,104.20
2023-03-02T23:17:22.133Z,105.30
2023-03-02T23:19:51.498Z,110.90
2023-03-02T23:22:19.821Z,104.93
2023-03-02T23:24:47.432Z,107.47
2023-03-02T23:27:15.323Z,99.83
2023-03-02T23:29:43.004Z,109.30
2023-03-02T23:32:10.670Z,107.20
2023-03-02T23:34:39.774Z,106.57
2023-03-02T23:37:07.473Z,114.50
2023-03-02T23:39:35.157Z,105.37
2023-03-02T23:42:02.955Z,107.30
2023-03-02T23:44:30.661Z,97.87
2023-03-02T23:46:58.450Z,104.83
2023-03-02T23:49:26.116Z,102.67
2023-03-02T23:51:55.128Z,95.53
2023-03-02T23:54:22.764Z,98.53
2023-03-02T23:56:50.409Z,95.60
2023-03-02T23:59:18.079Z,95.10
